sensor_id;sensor_type;location;lat;lon;timestamp;temperature;humidity
10883;DHT22;5494;51.796;10.952;2023-02-02T00:01:25;5.00;99.90
10883;DHT22;5494;51.796;10.952;2023-02-02T00:03:54;5.00;99.90
10883;DHT22;5494;51.796;10.952;2023-02-02T00:06:25;5.00;99.90
10883;DHT22;5494;51.796;10.952;2023-02-02T00:08:56;4.90;99.90
10883;DHT22;5494;51.796;10.952;2023-02-02T00:11:26;5.00;99.90
10883;DHT22;5494;51.796;10.952;2023-02-02T00:13:55;4.90;99.90
10883;DHT22;5494;51.796;10.952;2023-02-02T00:16:37;4.90;99.90
10883;DHT22;5494;51.796;10.952;2023-02-02T00:19:09;4.90;99.90
10883;DHT22;5494;51.796;10.952;2023-02-02T00:21:39;4.90;99.90
10883;DHT22;5494;51.796;10.952;2023-02-02T00:24:08;4.90;99.90
10883;DHT22;5494;51.796;10.952;2023-02-02T00:26:40;4.90;99.90
10883;DHT22;5494;51.796;10.952;2023-02-02T00:29:13;4.90;99.90
10883;DHT22;5494;51.796;10.952;2023-02-02T00:31:42;4.90;99.90
10883;DHT22;5494;51.796;10.952;2023-02-02T00:34:11;4.90;99.90
10883;DHT22;5494;51.796;10.952;2023-02-02T00:36:40;4.90;99.90
10883;DHT22;5494;51.796;10.952;2023-02-02T00:39:10;4.90;99.90
10883;DHT22;5494;51.796;10.952;2023-02-02T00:41:42;5.00;99.90
10883;DHT22;5494;51.796;10.952;2023-02-02T00:44:10;5.00;99.90
10883;DHT22;5494;51.796;10.952;2023-02-02T00:46:56;5.00;99.90
10883;DHT22;5494;51.796;10.952;2023-02-02T00:49:24;5.00;99.90
10883;DHT22;5494;51.796;10.952;2023-02-02T00:51:52;5.00;99.90
10883;DHT22;5494;51.796;10.952;2023-02-02T00:54:20;5.00;99.90
10883;DHT22;5494;51.796;10.952;2023-02-02T00:56:50;4.90;99.90
10883;DHT22;5494;51.796;10.952;2023-02-02T00:59:17;4.90;99.90
10883;DHT22;5494;51.796;10.952;2023-02-02T01:01:45;4.90;99.90
10883;DHT22;5494;51.796;10.952;2023-02-02T01:04:13;4.90;99.90
10883;DHT22;5494;51.796;10.952;2023-02-02T01:06:41;4.90;99.90
10883;DHT22;5494;51.796;10.952;2023-02-02T01:09:09;4.90;99.90
10883;DHT22;5494;51.796;10.952;2023-02-02T01:11:40;4.80;99.90
10883;DHT22;5494;51.796;10.952;2023-02-02T01:14:09;4.90;99.90
10883;DHT22;5494;51.796;10.952;2023-02-02T01:16:37;4.90;99.90
10883;DHT22;5494;51.796;10.952;2023-02-02T01:19:05;4.90;99.90
10883;DHT22;5494;51.796;10.952;2023-02-02T01:21:34;4.90;99.90
10883;DHT22;5494;51.796;10.952;2023-02-02T01:24:02;4.90;99.90
10883;DHT22;5494;51.796;10.952;2023-02-02T01:26:30;4.90;99.90
10883;DHT22;5494;51.796;10.952;2023-02-02T01:28:58;4.90;99.90
10883;DHT22;5494;51.796;10.952;2023-02-02T01:31:27;4.90;99.90
10883;DHT22;5494;51.796;10.952;2023-02-02T01:33:56;4.90;99.90
10883;DHT22;5494;51.796;10.952;2023-02-02T01:36:24;4.90;99.90
10883;DHT22;5494;51.796;10.952;2023-02-02T01:38:52;5.00;99.90
10883;DHT22;5494;51.796;10.952;2023-02-02T01:41:22;5.00;99.90
10883;DHT22;5494;51.796;10.952;2023-02-02T01:43:57;5.00;99.90
10883;DHT22;5494;51.796;10.952;2023-02-02T01:46:29;5.00;99.90
10883;DHT22;5494;51.796;10.952;2023-02-02T01:49:03;5.00;99.90
10883;DHT22;5494;51.796;10.952;2023-02-02T01:51:39;5.10;99.90
10883;DHT22;5494;51.796;10.952;2023-02-02T01:54:13;5.10;99.90
10883;DHT22;5494;51.796;10.952;2023-02-02T01:56:47;5.10;99.90
10883;DHT22;5494;51.796;10.952;2023-02-02T01:59:20;5.00;99.90
10883;DHT22;5494;51.796;10.952;2023-02-02T02:01:51;5.00;99.90
10883;DHT22;5494;51.796;10.952;2023-02-02T02:04:22;5.00;99.90
10883;DHT22;5494;51.796;10.952;2023-02-02T02:06:52;5.00;99.90
10883;DHT22;5494;51.796;10.952;2023-02-02T02:09:21;6.60;99.90
10883;DHT22;5494;51.796;10.952;2023-02-02T02:11:51;5.00;99.90
10883;DHT22;5494;51.796;10.952;2023-02-02T02:14:21;4.90;99.90
10883;DHT22;5494;51.796;10.952;2023-02-02T02:17:22;5.00;99.90
10883;DHT22;5494;51.796;10.952;2023-02-02T02:24:19;5.00;99.90
10883;DHT22;5494;51.796;10.952;2023-02-02T02:27:48;5.00;99.90
10883;DHT22;5494;51.796;10.952;2023-02-02T02:31:26;6.50;99.90
10883;DHT22;5494;51.796;10.952;2023-02-02T02:34:32;4.90;99.90
10883;DHT22;5494;51.796;10.952;2023-02-02T02:37:15;4.90;99.90
10883;DHT22;5494;51.796;10.952;2023-02-02T02:39:54;4.90;99.90
10883;DHT22;5494;51.796;10.952;2023-02-02T02:42:35;4.90;99.90
10883;DHT22;5494;51.796;10.952;2023-02-02T02:45:09;4.90;99.90
10883;DHT22;5494;51.796;10.952;2023-02-02T02:47:40;5.00;99.90
10883;DHT22;5494;51.796;10.952;2023-02-02T02:50:11;5.00;99.90
10883;DHT22;5494;51.796;10.952;2023-02-02T02:52:42;5.00;99.90
10883;DHT22;5494;51.796;10.952;2023-02-02T02:55:15;5.10;99.90
10883;DHT22;5494;51.796;10.952;2023-02-02T02:57:54;5.10;99.90
10883;DHT22;5494;51.796;10.952;2023-02-02T03:00:45;5.20;99.90
10883;DHT22;5494;51.796;10.952;2023-02-02T03:03:23;5.20;99.90
10883;DHT22;5494;51.796;10.952;2023-02-02T03:06:04;5.30;99.90
10883;DHT22;5494;51.796;10.952;2023-02-02T03:08:39;5.30;99.90
10883;DHT22;5494;51.796;10.952;2023-02-02T03:11:14;5.30;99.90
10883;DHT22;5494;51.796;10.952;2023-02-02T03:13:43;5.30;99.90
10883;DHT22;5494;51.796;10.952;2023-02-02T03:16:13;5.30;99.90
10883;DHT22;5494;51.796;10.952;2023-02-02T03:18:43;5.40;99.90
10883;DHT22;5494;51.796;10.952;2023-02-02T03:21:12;5.40;99.90
10883;DHT22;5494;51.796;10.952;2023-02-02T03:23:40;5.40;99.90
10883;DHT22;5494;51.796;10.952;2023-02-02T03:26:08;5.40;99.90
10883;DHT22;5494;51.796;10.952;2023-02-02T03:28:36;5.30;99.90
10883;DHT22;5494;51.796;10.952;2023-02-02T03:31:05;5.40;99.90
10883;DHT22;5494;51.796;10.952;2023-02-02T03:33:35;5.40;99.90
10883;DHT22;5494;51.796;10.952;2023-02-02T03:36:05;5.40;99.90
10883;DHT22;5494;51.796;10.952;2023-02-02T03:38:34;5.40;99.90
10883;DHT22;5494;51.796;10.952;2023-02-02T03:41:05;5.40;99.90
10883;DHT22;5494;51.796;10.952;2023-02-02T03:43:36;5.40;99.90
10883;DHT22;5494;51.796;10.952;2023-02-02T03:46:05;5.40;99.90
10883;DHT22;5494;51.796;10.952;2023-02-02T03:48:34;5.40;99.90
10883;DHT22;5494;51.796;10.952;2023-02-02T03:51:06;5.40;99.90
10883;DHT22;5494;51.796;10.952;2023-02-02T03:53:36;5.40;99.90
10883;DHT22;5494;51.796;10.952;2023-02-02T03:56:06;5.40;99.90
10883;DHT22;5494;51.796;10.952;2023-02-02T03:58:34;5.30;99.90
10883;DHT22;5494;51.796;10.952;2023-02-02T04:01:02;5.30;99.90
10883;DHT22;5494;51.796;10.952;2023-02-02T04:03:31;5.20;99.90
10883;DHT22;5494;51.796;10.952;2023-02-02T04:05:59;5.20;99.90
10883;DHT22;5494;51.796;10.952;2023-02-02T04:08:28;5.20;99.90
10883;DHT22;5494;51.796;10.952;2023-02-02T04:10:58;5.20;99.90
10883;DHT22;5494;51.796;10.952;2023-02-02T04:13:28;5.20;99.90
10883;DHT22;5494;51.796;10.952;2023-02-02T04:15:57;5.20;99.90
10883;DHT22;5494;51.796;10.952;2023-02-02T04:18:26;5.20;99.90
10883;DHT22;5494;51.796;10.952;2023-02-02T04:20:56;5.20;99.90
10883;DHT22;5494;51.796;10.952;2023-02-02T04:23:25;5.20;99.90
10883;DHT22;5494;51.796;10.952;2023-02-02T04:25:55;5.20;99.90
10883;DHT22;5494;51.796;10.952;2023-02-02T04:28:25;5.10;99.90
10883;DHT22;5494;51.796;10.952;2023-02-02T04:30:55;5.10;99.90
10883;DHT22;5494;51.796;10.952;2023-02-02T04:33:24;5.10;99.90
10883;DHT22;5494;51.796;10.952;2023-02-02T04:35:54;5.10;99.90
10883;DHT22;5494;51.796;10.952;2023-02-02T04:38:24;5.10;99.90
10883;DHT22;5494;51.796;10.952;2023-02-02T04:40:52;5.00;99.90
10883;DHT22;5494;51.796;10.952;2023-02-02T04:43:20;5.00;99.90
10883;DHT22;5494;51.796;10.952;2023-02-02T04:45:54;5.00;99.90
10883;DHT22;5494;51.796;10.952;2023-02-02T04:48:23;5.00;99.90
10883;DHT22;5494;51.796;10.952;2023-02-02T04:50:57;5.00;99.90
10883;DHT22;5494;51.796;10.952;2023-02-02T04:53:26;5.00;99.90
10883;DHT22;5494;51.796;10.952;2023-02-02T04:56:03;5.00;99.90
10883;DHT22;5494;51.796;10.952;2023-02-02T04:58:32;5.00;99.90
10883;DHT22;5494;51.796;10.952;2023-02-02T05:01:07;5.00;99.90
10883;DHT22;5494;51.796;10.952;2023-02-02T05:03:36;4.90;99.90
10883;DHT22;5494;51.796;10.952;2023-02-02T05:06:05;5.00;99.90
10883;DHT22;5494;51.796;10.952;2023-02-02T05:08:34;4.90;99.90
10883;DHT22;5494;51.796;10.952;2023-02-02T05:11:05;4.90;99.90
10883;DHT22;5494;51.796;10.952;2023-02-02T05:13:34;5.00;99.90
10883;DHT22;5494;51.796;10.952;2023-02-02T05:16:05;5.00;99.90
10883;DHT22;5494;51.796;10.952;2023-02-02T05:18:33;5.10;99.90
10883;DHT22;5494;51.796;10.952;2023-02-02T05:21:02;5.10;99.90
10883;DHT22;5494;51.796;10.952;2023-02-02T05:23:30;5.10;99.90
10883;DHT22;5494;51.796;10.952;2023-02-02T05:25:58;5.20;99.90
10883;DHT22;5494;51.796;10.952;2023-02-02T05:28:26;5.20;99.90
10883;DHT22;5494;51.796;10.952;2023-02-02T05:30:55;5.30;99.90
10883;DHT22;5494;51.796;10.952;2023-02-02T05:33:25;5.30;99.90
10883;DHT22;5494;51.796;10.952;2023-02-02T05:35:53;5.30;99.90
10883;DHT22;5494;51.796;10.952;2023-02-02T05:38:20;5.30;99.90
10883;DHT22;5494;51.796;10.952;2023-02-02T05:40:48;5.40;99.90
10883;DHT22;5494;51.796;10.952;2023-02-02T05:43:16;5.40;99.90
10883;DHT22;5494;51.796;10.952;2023-02-02T05:45:47;5.40;99.90
10883;DHT22;5494;51.796;10.952;2023-02-02T05:48:15;5.40;99.90
10883;DHT22;5494;51.796;10.952;2023-02-02T05:50:46;5.40;99.90
10883;DHT22;5494;51.796;10.952;2023-02-02T05:53:23;5.30;99.90
10883;DHT22;5494;51.796;10.952;2023-02-02T05:55:51;5.30;99.90
10883;DHT22;5494;51.796;10.952;2023-02-02T05:58:19;5.30;99.90
10883;DHT22;5494;51.796;10.952;2023-02-02T06:00:47;5.30;99.90
10883;DHT22;5494;51.796;10.952;2023-02-02T06:03:15;5.20;99.90
10883;DHT22;5494;51.796;10.952;2023-02-02T06:05:44;5.20;99.90
10883;DHT22;5494;51.796;10.952;2023-02-02T06:08:12;5.20;99.90
10883;DHT22;5494;51.796;10.952;2023-02-02T06:10:40;5.30;99.90
10883;DHT22;5494;51.796;10.952;2023-02-02T06:13:08;5.30;99.90
10883;DHT22;5494;51.796;10.952;2023-02-02T06:15:37;5.30;99.90
10883;DHT22;5494;51.796;10.952;2023-02-02T06:18:05;5.30;99.90
10883;DHT22;5494;51.796;10.952;2023-02-02T06:20:34;5.30;99.90
10883;DHT22;5494;51.796;10.952;2023-02-02T06:23:03;5.30;99.90
10883;DHT22;5494;51.796;10.952;2023-02-02T06:25:32;5.30;99.90
10883;DHT22;5494;51.796;10.952;2023-02-02T06:28:00;5.30;99.90
10883;DHT22;5494;51.796;10.952;2023-02-02T06:30:28;5.20;99.90
10883;DHT22;5494;51.796;10.952;2023-02-02T06:32:58;5.20;99.90
10883;DHT22;5494;51.796;10.952;2023-02-02T06:35:27;5.20;99.90
10883;DHT22;5494;51.796;10.952;2023-02-02T06:37:55;5.20;99.90
10883;DHT22;5494;51.796;10.952;2023-02-02T06:40:26;5.20;99.90
10883;DHT22;5494;51.796;10.952;2023-02-02T06:42:55;5.10;99.90
10883;DHT22;5494;51.796;10.952;2023-02-02T06:45:24;5.10;99.90
10883;DHT22;5494;51.796;10.952;2023-02-02T06:47:53;5.20;99.90
10883;DHT22;5494;51.796;10.952;2023-02-02T06:50:26;5.20;99.90
10883;DHT22;5494;51.796;10.952;2023-02-02T06:52:54;5.20;99.90
10883;DHT22;5494;51.796;10.952;2023-02-02T06:55:22;5.30;99.90
10883;DHT22;5494;51.796;10.952;2023-02-02T06:57:56;5.30;99.90
10883;DHT22;5494;51.796;10.952;2023-02-02T07:00:27;5.30;99.90
10883;DHT22;5494;51.796;10.952;2023-02-02T07:02:56;5.40;99.90
10883;DHT22;5494;51.796;10.952;2023-02-02T07:05:26;5.40;99.90
10883;DHT22;5494;51.796;10.952;2023-02-02T07:07:56;5.70;99.90
10883;DHT22;5494;51.796;10.952;2023-02-02T07:10:24;5.40;99.90
10883;DHT22;5494;51.796;10.952;2023-02-02T07:13:13;5.40;99.90
10883;DHT22;5494;51.796;10.952;2023-02-02T07:15:41;5.30;99.90
10883;DHT22;5494;51.796;10.952;2023-02-02T07:18:09;5.30;99.90
10883;DHT22;5494;51.796;10.952;2023-02-02T07:20:37;5.40;99.90
10883;DHT22;5494;51.796;10.952;2023-02-02T07:23:05;5.40;99.90
10883;DHT22;5494;51.796;10.952;2023-02-02T07:25:33;5.50;99.90
10883;DHT22;5494;51.796;10.952;2023-02-02T07:28:01;5.50;99.90
10883;DHT22;5494;51.796;10.952;2023-02-02T07:30:31;5.50;99.90
10883;DHT22;5494;51.796;10.952;2023-02-02T07:32:59;5.50;99.90
10883;DHT22;5494;51.796;10.952;2023-02-02T07:35:27;5.50;99.90
10883;DHT22;5494;51.796;10.952;2023-02-02T07:37:55;5.50;99.90
10883;DHT22;5494;51.796;10.952;2023-02-02T07:40:23;5.50;99.90
10883;DHT22;5494;51.796;10.952;2023-02-02T07:42:51;5.50;99.90
10883;DHT22;5494;51.796;10.952;2023-02-02T07:45:19;5.60;99.90
10883;DHT22;5494;51.796;10.952;2023-02-02T07:47:58;5.60;99.90
10883;DHT22;5494;51.796;10.952;2023-02-02T07:50:28;5.60;99.90
10883;DHT22;5494;51.796;10.952;2023-02-02T07:52:57;5.60;99.90
10883;DHT22;5494;51.796;10.952;2023-02-02T07:55:26;5.60;99.90
10883;DHT22;5494;51.796;10.952;2023-02-02T07:57:54;5.60;99.90
10883;DHT22;5494;51.796;10.952;2023-02-02T08:00:25;5.70;99.90
10883;DHT22;5494;51.796;10.952;2023-02-02T08:02:53;5.70;99.90
10883;DHT22;5494;51.796;10.952;2023-02-02T08:05:23;5.70;99.90
10883;DHT22;5494;51.796;10.952;2023-02-02T08:07:51;5.70;99.90
10883;DHT22;5494;51.796;10.952;2023-02-02T08:10:19;5.80;99.90
10883;DHT22;5494;51.796;10.952;2023-02-02T08:12:47;5.80;99.90
10883;DHT22;5494;51.796;10.952;2023-02-02T08:15:15;5.80;99.90
10883;DHT22;5494;51.796;10.952;2023-02-02T08:17:44;5.90;99.90
10883;DHT22;5494;51.796;10.952;2023-02-02T08:20:15;6.00;99.90
10883;DHT22;5494;51.796;10.952;2023-02-02T08:22:44;6.00;99.90
10883;DHT22;5494;51.796;10.952;2023-02-02T08:25:12;6.10;99.90
10883;DHT22;5494;51.796;10.952;2023-02-02T08:27:40;6.10;99.90
10883;DHT22;5494;51.796;10.952;2023-02-02T08:30:10;6.00;99.90
10883;DHT22;5494;51.796;10.952;2023-02-02T08:32:39;6.10;99.90
10883;DHT22;5494;51.796;10.952;2023-02-02T08:35:07;6.10;99.90
10883;DHT22;5494;51.796;10.952;2023-02-02T08:37:35;6.00;99.90
10883;DHT22;5494;51.796;10.952;2023-02-02T08:40:06;6.10;99.90
10883;DHT22;5494;51.796;10.952;2023-02-02T08:42:35;6.10;99.90
10883;DHT22;5494;51.796;10.952;2023-02-02T08:45:04;6.00;99.90
10883;DHT22;5494;51.796;10.952;2023-02-02T08:47:53;6.00;99.90
10883;DHT22;5494;51.796;10.952;2023-02-02T08:50:36;6.00;99.90
10883;DHT22;5494;51.796;10.952;2023-02-02T08:53:04;6.10;99.90
10883;DHT22;5494;51.796;10.952;2023-02-02T08:55:33;6.10;99.90
10883;DHT22;5494;51.796;10.952;2023-02-02T08:58:01;6.20;99.90
10883;DHT22;5494;51.796;10.952;2023-02-02T09:00:30;6.20;99.90
10883;DHT22;5494;51.796;10.952;2023-02-02T09:02:58;6.30;99.90
10883;DHT22;5494;51.796;10.952;2023-02-02T09:05:26;6.30;99.90
10883;DHT22;5494;51.796;10.952;2023-02-02T09:07:54;6.30;99.90
10883;DHT22;5494;51.796;10.952;2023-02-02T09:10:23;6.30;99.90
10883;DHT22;5494;51.796;10.952;2023-02-02T09:12:52;6.40;99.90
10883;DHT22;5494;51.796;10.952;2023-02-02T09:15:20;6.40;99.90
10883;DHT22;5494;51.796;10.952;2023-02-02T09:17:49;6.40;99.90
10883;DHT22;5494;51.796;10.952;2023-02-02T09:20:17;6.40;99.90
10883;DHT22;5494;51.796;10.952;2023-02-02T09:22:46;6.40;99.90
10883;DHT22;5494;51.796;10.952;2023-02-02T09:25:15;6.40;99.90
10883;DHT22;5494;51.796;10.952;2023-02-02T09:27:43;6.40;99.90
10883;DHT22;5494;51.796;10.952;2023-02-02T09:30:13;6.50;99.90
10883;DHT22;5494;51.796;10.952;2023-02-02T09:32:41;6.50;99.90
10883;DHT22;5494;51.796;10.952;2023-02-02T09:35:11;6.60;99.90
10883;DHT22;5494;51.796;10.952;2023-02-02T09:37:40;6.60;99.90
10883;DHT22;5494;51.796;10.952;2023-02-02T09:40:14;6.70;99.90
10883;DHT22;5494;51.796;10.952;2023-02-02T09:43:00;6.80;99.90
10883;DHT22;5494;51.796;10.952;2023-02-02T09:45:43;7.00;99.90
10883;DHT22;5494;51.796;10.952;2023-02-02T09:48:25;7.10;99.90
10883;DHT22;5494;51.796;10.952;2023-02-02T09:51:05;7.20;99.90
10883;DHT22;5494;51.796;10.952;2023-02-02T09:53:44;7.10;99.90
10883;DHT22;5494;51.796;10.952;2023-02-02T09:56:25;7.20;99.90
10883;DHT22;5494;51.796;10.952;2023-02-02T09:58:58;7.20;99.90
10883;DHT22;5494;51.796;10.952;2023-02-02T10:01:50;7.30;99.90
10883;DHT22;5494;51.796;10.952;2023-02-02T10:04:26;7.30;99.90
10883;DHT22;5494;51.796;10.952;2023-02-02T10:07:05;7.30;99.90
10883;DHT22;5494;51.796;10.952;2023-02-02T10:09:41;7.30;99.90
10883;DHT22;5494;51.796;10.952;2023-02-02T10:12:22;7.30;99.90
10883;DHT22;5494;51.796;10.952;2023-02-02T10:15:01;7.40;99.90
10883;DHT22;5494;51.796;10.952;2023-02-02T10:17:44;7.40;99.90
10883;DHT22;5494;51.796;10.952;2023-02-02T10:20:25;7.50;99.90
10883;DHT22;5494;51.796;10.952;2023-02-02T10:23:08;7.50;99.90
10883;DHT22;5494;51.796;10.952;2023-02-02T10:25:47;7.70;99.90
10883;DHT22;5494;51.796;10.952;2023-02-02T10:28:40;7.90;99.90
10883;DHT22;5494;51.796;10.952;2023-02-02T10:31:21;8.20;99.90
10883;DHT22;5494;51.796;10.952;2023-02-02T10:34:07;8.60;99.90
10883;DHT22;5494;51.796;10.952;2023-02-02T10:36:52;8.70;99.90
10883;DHT22;5494;51.796;10.952;2023-02-02T10:39:38;8.70;99.90
10883;DHT22;5494;51.796;10.952;2023-02-02T10:42:28;8.90;99.90
10883;DHT22;5494;51.796;10.952;2023-02-02T10:45:03;8.70;99.90
10883;DHT22;5494;51.796;10.952;2023-02-02T10:47:41;8.50;99.90
10883;DHT22;5494;51.796;10.952;2023-02-02T10:50:16;8.50;99.90
10883;DHT22;5494;51.796;10.952;2023-02-02T10:52:48;8.40;99.90
10883;DHT22;5494;51.796;10.952;2023-02-02T10:55:26;8.30;99.90
10883;DHT22;5494;51.796;10.952;2023-02-02T10:58:13;8.40;99.90
10883;DHT22;5494;51.796;10.952;2023-02-02T11:00:51;8.70;99.90
10883;DHT22;5494;51.796;10.952;2023-02-02T11:03:24;8.90;99.90
10883;DHT22;5494;51.796;10.952;2023-02-02T11:05:57;9.00;99.90
10883;DHT22;5494;51.796;10.952;2023-02-02T11:08:47;9.10;99.90
10883;DHT22;5494;51.796;10.952;2023-02-02T11:11:24;9.00;99.90
10883;DHT22;5494;51.796;10.952;2023-02-02T11:13:58;8.90;99.90
10883;DHT22;5494;51.796;10.952;2023-02-02T11:16:30;8.90;99.90
10883;DHT22;5494;51.796;10.952;2023-02-02T11:19:25;8.90;99.90
10883;DHT22;5494;51.796;10.952;2023-02-02T11:21:58;8.80;99.90
10883;DHT22;5494;51.796;10.952;2023-02-02T11:24:29;8.80;99.90
10883;DHT22;5494;51.796;10.952;2023-02-02T11:27:04;8.60;99.90
10883;DHT22;5494;51.796;10.952;2023-02-02T11:29:42;8.60;99.90
10883;DHT22;5494;51.796;10.952;2023-02-02T11:32:18;9.50;99.90
10883;DHT22;5494;51.796;10.952;2023-02-02T11:35:20;8.70;99.90
10883;DHT22;5494;51.796;10.952;2023-02-02T11:37:59;8.60;99.90
10883;DHT22;5494;51.796;10.952;2023-02-02T11:40:38;8.60;99.90
10883;DHT22;5494;51.796;10.952;2023-02-02T11:43:16;8.50;99.90
10883;DHT22;5494;51.796;10.952;2023-02-02T11:45:52;8.50;99.90
10883;DHT22;5494;51.796;10.952;2023-02-02T11:48:27;8.50;99.90
10883;DHT22;5494;51.796;10.952;2023-02-02T11:50:59;8.30;99.90
10883;DHT22;5494;51.796;10.952;2023-02-02T11:53:31;8.30;99.90
10883;DHT22;5494;51.796;10.952;2023-02-02T11:56:04;8.30;99.90
10883;DHT22;5494;51.796;10.952;2023-02-02T11:58:43;8.40;99.90
10883;DHT22;5494;51.796;10.952;2023-02-02T12:01:23;8.40;99.90
10883;DHT22;5494;51.796;10.952;2023-02-02T12:03:53;8.50;99.90
10883;DHT22;5494;51.796;10.952;2023-02-02T12:06:24;8.50;99.90
10883;DHT22;5494;51.796;10.952;2023-02-02T12:08:57;8.50;99.90
10883;DHT22;5494;51.796;10.952;2023-02-02T12:11:36;8.50;99.90
10883;DHT22;5494;51.796;10.952;2023-02-02T12:14:23;8.40;99.90
10883;DHT22;5494;51.796;10.952;2023-02-02T12:17:05;8.20;99.90
10883;DHT22;5494;51.796;10.952;2023-02-02T12:19:56;8.00;99.90
10883;DHT22;5494;51.796;10.952;2023-02-02T12:22:45;7.90;99.90
10883;DHT22;5494;51.796;10.952;2023-02-02T12:26:02;7.80;99.90
10883;DHT22;5494;51.796;10.952;2023-02-02T12:29:06;7.70;99.90
10883;DHT22;5494;51.796;10.952;2023-02-02T12:35:11;7.70;99.90
10883;DHT22;5494;51.796;10.952;2023-02-02T12:38:10;7.80;99.90
10883;DHT22;5494;51.796;10.952;2023-02-02T12:41:03;7.90;99.90
10883;DHT22;5494;51.796;10.952;2023-02-02T12:43:46;7.90;99.90
10883;DHT22;5494;51.796;10.952;2023-02-02T12:46:39;7.20;99.90
10883;DHT22;5494;51.796;10.952;2023-02-02T12:49:26;7.90;99.90
10883;DHT22;5494;51.796;10.952;2023-02-02T12:52:16;8.00;99.90
10883;DHT22;5494;51.796;10.952;2023-02-02T12:55:06;8.20;99.90
10883;DHT22;5494;51.796;10.952;2023-02-02T12:57:54;8.30;99.90
10883;DHT22;5494;51.796;10.952;2023-02-02T13:00:47;8.30;99.90
10883;DHT22;5494;51.796;10.952;2023-02-02T13:03:37;8.10;99.90
10883;DHT22;5494;51.796;10.952;2023-02-02T13:06:44;8.10;99.90
10883;DHT22;5494;51.796;10.952;2023-02-02T13:09:35;8.20;99.90
10883;DHT22;5494;51.796;10.952;2023-02-02T13:12:09;7.20;99.90
10883;DHT22;5494;51.796;10.952;2023-02-02T13:14:42;7.90;99.90
10883;DHT22;5494;51.796;10.952;2023-02-02T13:17:18;7.90;99.90
10883;DHT22;5494;51.796;10.952;2023-02-02T13:19:58;7.80;99.90
10883;DHT22;5494;51.796;10.952;2023-02-02T13:22:33;7.70;99.90
10883;DHT22;5494;51.796;10.952;2023-02-02T13:25:07;7.60;99.90
10883;DHT22;5494;51.796;10.952;2023-02-02T13:27:43;7.70;99.90
10883;DHT22;5494;51.796;10.952;2023-02-02T13:30:25;7.80;99.90
10883;DHT22;5494;51.796;10.952;2023-02-02T13:32:59;7.90;99.90
10883;DHT22;5494;51.796;10.952;2023-02-02T13:35:35;8.00;99.90
10883;DHT22;5494;51.796;10.952;2023-02-02T13:38:15;8.10;99.90
10883;DHT22;5494;51.796;10.952;2023-02-02T13:40:49;8.20;99.90
10883;DHT22;5494;51.796;10.952;2023-02-02T13:43:38;8.20;99.90
10883;DHT22;5494;51.796;10.952;2023-02-02T13:46:25;8.10;99.90
10883;DHT22;5494;51.796;10.952;2023-02-02T13:49:05;7.90;99.90
10883;DHT22;5494;51.796;10.952;2023-02-02T13:51:47;7.70;99.90
10883;DHT22;5494;51.796;10.952;2023-02-02T13:54:44;7.50;99.90
10883;DHT22;5494;51.796;10.952;2023-02-02T13:57:39;7.30;99.90
10883;DHT22;5494;51.796;10.952;2023-02-02T14:00:29;7.10;99.90
10883;DHT22;5494;51.796;10.952;2023-02-02T14:03:15;7.00;99.90
10883;DHT22;5494;51.796;10.952;2023-02-02T14:06:12;6.90;99.90
10883;DHT22;5494;51.796;10.952;2023-02-02T14:08:45;6.80;99.90
10883;DHT22;5494;51.796;10.952;2023-02-02T14:11:20;6.70;99.90
10883;DHT22;5494;51.796;10.952;2023-02-02T14:13:54;6.60;99.90
10883;DHT22;5494;51.796;10.952;2023-02-02T14:16:48;6.60;99.90
10883;DHT22;5494;51.796;10.952;2023-02-02T14:19:48;6.60;99.90
10883;DHT22;5494;51.796;10.952;2023-02-02T14:28:40;6.60;99.90
10883;DHT22;5494;51.796;10.952;2023-02-02T14:31:27;6.50;99.90
10883;DHT22;5494;51.796;10.952;2023-02-02T14:34:26;6.50;99.90
10883;DHT22;5494;51.796;10.952;2023-02-02T14:40:22;6.60;99.90
10883;DHT22;5494;51.796;10.952;2023-02-02T14:43:08;6.60;99.90
10883;DHT22;5494;51.796;10.952;2023-02-02T14:46:24;6.60;99.90
10883;DHT22;5494;51.796;10.952;2023-02-02T14:49:15;6.70;99.90
10883;DHT22;5494;51.796;10.952;2023-02-02T14:52:03;6.70;99.90
10883;DHT22;5494;51.796;10.952;2023-02-02T14:54:36;6.70;99.90
10883;DHT22;5494;51.796;10.952;2023-02-02T14:57:22;6.60;99.90
10883;DHT22;5494;51.796;10.952;2023-02-02T14:59:53;6.60;99.90
10883;DHT22;5494;51.796;10.952;2023-02-02T15:02:31;6.60;99.90
10883;DHT22;5494;51.796;10.952;2023-02-02T15:05:33;6.60;99.90
10883;DHT22;5494;51.796;10.952;2023-02-02T15:08:21;6.60;99.90
10883;DHT22;5494;51.796;10.952;2023-02-02T15:11:03;6.50;99.90
10883;DHT22;5494;51.796;10.952;2023-02-02T15:13:50;7.30;99.90
10883;DHT22;5494;51.796;10.952;2023-02-02T15:16:26;6.50;99.90
10883;DHT22;5494;51.796;10.952;2023-02-02T15:19:05;6.40;99.90
10883;DHT22;5494;51.796;10.952;2023-02-02T15:21:39;6.40;99.90
10883;DHT22;5494;51.796;10.952;2023-02-02T15:24:20;6.30;99.90
10883;DHT22;5494;51.796;10.952;2023-02-02T15:26:53;6.30;99.90
10883;DHT22;5494;51.796;10.952;2023-02-02T15:29:39;6.20;99.90
10883;DHT22;5494;51.796;10.952;2023-02-02T15:32:14;6.20;99.90
10883;DHT22;5494;51.796;10.952;2023-02-02T15:34:48;6.10;99.90
10883;DHT22;5494;51.796;10.952;2023-02-02T15:37:25;6.00;99.90
10883;DHT22;5494;51.796;10.952;2023-02-02T15:40:02;6.00;99.90
10883;DHT22;5494;51.796;10.952;2023-02-02T15:42:41;5.90;99.90
10883;DHT22;5494;51.796;10.952;2023-02-02T15:45:33;5.90;99.90
10883;DHT22;5494;51.796;10.952;2023-02-02T15:48:13;5.90;99.90
10883;DHT22;5494;51.796;10.952;2023-02-02T15:50:47;5.90;99.90
10883;DHT22;5494;51.796;10.952;2023-02-02T15:53:23;5.90;99.90
10883;DHT22;5494;51.796;10.952;2023-02-02T15:55:54;5.80;99.90
10883;DHT22;5494;51.796;10.952;2023-02-02T15:58:30;5.80;99.90
10883;DHT22;5494;51.796;10.952;2023-02-02T16:01:02;5.70;99.90
10883;DHT22;5494;51.796;10.952;2023-02-02T16:03:41;5.70;99.90
10883;DHT22;5494;51.796;10.952;2023-02-02T16:06:13;5.70;99.90
10883;DHT22;5494;51.796;10.952;2023-02-02T16:08:42;5.70;99.90
10883;DHT22;5494;51.796;10.952;2023-02-02T16:11:13;5.60;99.90
10883;DHT22;5494;51.796;10.952;2023-02-02T16:13:55;5.60;99.90
10883;DHT22;5494;51.796;10.952;2023-02-02T16:16:28;5.50;99.90
10883;DHT22;5494;51.796;10.952;2023-02-02T16:19:04;5.50;99.90
10883;DHT22;5494;51.796;10.952;2023-02-02T16:21:43;5.40;99.90
10883;DHT22;5494;51.796;10.952;2023-02-02T16:24:18;5.40;99.90
10883;DHT22;5494;51.796;10.952;2023-02-02T16:26:51;5.30;99.90
10883;DHT22;5494;51.796;10.952;2023-02-02T16:29:22;5.20;99.90
10883;DHT22;5494;51.796;10.952;2023-02-02T16:31:51;5.30;99.90
10883;DHT22;5494;51.796;10.952;2023-02-02T16:34:42;5.30;99.90
10883;DHT22;5494;51.796;10.952;2023-02-02T16:37:14;5.30;99.90
10883;DHT22;5494;51.796;10.952;2023-02-02T16:39:48;5.20;99.90
10883;DHT22;5494;51.796;10.952;2023-02-02T16:42:23;5.20;99.90
10883;DHT22;5494;51.796;10.952;2023-02-02T16:44:55;5.20;99.90
10883;DHT22;5494;51.796;10.952;2023-02-02T16:47:35;5.20;99.90
10883;DHT22;5494;51.796;10.952;2023-02-02T16:50:26;5.20;99.90
10883;DHT22;5494;51.796;10.952;2023-02-02T16:52:59;5.10;99.90